createdAt,value
2018-01-10T00:01:04.758Z,15.63
2018-01-10T00:03:32.484Z,15.63
2018-01-10T00:05:59.918Z,16.95
2018-01-10T00:08:28.177Z,15.82
2018-01-10T00:10:56.380Z,15.48
2018-01-10T00:13:23.813Z,15.45
2018-01-10T00:15:52.048Z,15.75
2018-01-10T00:18:19.491Z,15.88
2018-01-10T00:20:46.924Z,15.75
2018-01-10T00:23:14.829Z,15.60
2018-01-10T00:25:42.314Z,16.40
2018-01-10T00:28:09.705Z,15.52
2018-01-10T00:30:37.164Z,15.18
2018-01-10T00:33:04.624Z,17.12
2018-01-10T00:35:32.199Z,16.05
2018-01-10T00:37:59.644Z,15.63
2018-01-10T00:40:27.071Z,16.20
2018-01-10T00:42:55.392Z,15.75
2018-01-10T00:45:22.828Z,15.73
2018-01-10T00:47:50.283Z,15.55
2018-01-10T00:50:17.721Z,16.02
2018-01-10T00:52:45.947Z,15.25
2018-01-10T00:55:13.412Z,15.70
2018-01-10T00:57:40.860Z,15.18
2018-01-10T01:00:08.393Z,16.45
2018-01-10T01:02:35.890Z,15.75
2018-01-10T01:05:03.337Z,14.85
2018-01-10T01:07:30.781Z,15.95
2018-01-10T01:09:58.253Z,15.57
2018-01-10T01:12:25.696Z,15.43
2018-01-10T01:14:53.185Z,14.85
2018-01-10T01:17:20.696Z,15.32
2018-01-10T01:19:48.128Z,14.57
2018-01-10T01:22:17.411Z,14.87
2018-01-10T01:24:44.848Z,14.60
2018-01-10T01:27:12.396Z,16.30
2018-01-10T01:29:39.868Z,16.20
2018-01-10T01:32:07.312Z,15.20
2018-01-10T01:34:34.884Z,15.70
2018-01-10T01:37:02.320Z,15.10
2018-01-10T01:39:29.771Z,15.70
2018-01-10T01:41:57.356Z,16.42
2018-01-10T01:44:24.937Z,15.45
2018-01-10T01:46:52.424Z,15.20
2018-01-10T01:49:20.633Z,15.57
2018-01-10T01:51:48.073Z,14.07
2018-01-10T01:54:15.545Z,15.10
2018-01-10T01:56:42.974Z,14.80
2018-01-10T01:59:11.253Z,14.85
2018-01-10T02:01:39.457Z,14.63
2018-01-10T02:04:06.949Z,14.73
2018-01-10T02:06:34.383Z,14.77
2018-01-10T02:09:02.812Z,16.33
2018-01-10T02:11:31.020Z,14.63
2018-01-10T02:13:58.483Z,15.40
2018-01-10T02:16:25.925Z,15.55
2018-01-10T02:18:53.545Z,14.77
2018-01-10T02:21:20.979Z,14.20
2018-01-10T02:23:48.442Z,15.05
2018-01-10T02:26:15.885Z,14.45
2018-01-10T02:28:43.356Z,14.90
2018-01-10T02:31:10.788Z,14.60
2018-01-10T02:33:38.219Z,14.93
2018-01-10T02:36:05.724Z,14.02
2018-01-10T02:38:34.149Z,14.50
2018-01-10T02:41:02.352Z,13.40
2018-01-10T02:43:29.838Z,15.05
2018-01-10T02:45:57.272Z,14.10
2018-01-10T02:48:24.699Z,13.40
2018-01-10T02:50:52.954Z,13.52
2018-01-10T02:53:20.386Z,13.88
2018-01-10T02:55:47.829Z,14.38
2018-01-10T02:58:15.422Z,14.55
2018-01-10T03:00:42.908Z,14.15
2018-01-10T03:03:11.116Z,13.95
2018-01-10T03:05:38.547Z,13.45
2018-01-10T03:08:06.008Z,13.20
2018-01-10T03:10:34.348Z,13.15
2018-01-10T03:13:01.810Z,13.38
2018-01-10T03:15:29.244Z,12.77
2018-01-10T03:17:56.747Z,13.25
2018-01-10T03:20:25.064Z,12.60
2018-01-10T03:22:56.132Z,12.52
2018-01-10T03:25:23.596Z,13.30
2018-01-10T03:27:51.033Z,13.10
2018-01-10T03:30:18.500Z,12.23
2018-01-10T03:32:45.972Z,12.25
2018-01-10T03:35:13.408Z,12.77
2018-01-10T03:37:40.844Z,12.57
2018-01-10T03:40:08.404Z,12.13
2018-01-10T03:42:35.844Z,12.15
2018-01-10T03:45:03.504Z,11.82
2018-01-10T03:47:30.948Z,11.60
2018-01-10T03:49:59.176Z,11.77
2018-01-10T03:52:26.616Z,11.98
2018-01-10T03:54:54.090Z,12.70
2018-01-10T03:57:21.521Z,11.75
2018-01-10T03:59:49.056Z,11.20
2018-01-10T04:02:17.262Z,12.13
2018-01-10T04:04:44.701Z,10.82
2018-01-10T04:07:12.194Z,12.55
2018-01-10T04:09:39.640Z,12.35
2018-01-10T04:12:08.055Z,12.32
2018-01-10T04:14:35.637Z,11.20
2018-01-10T04:17:03.064Z,11.88
2018-01-10T04:19:30.512Z,11.12
2018-01-10T04:21:58.469Z,11.27
2018-01-10T04:24:25.904Z,11.55
2018-01-10T04:26:53.390Z,10.45
2018-01-10T04:29:20.873Z,11.30
2018-01-10T04:31:48.276Z,11.38
2018-01-10T04:34:15.744Z,11.60
2018-01-10T04:36:43.181Z,11.32
2018-01-10T04:39:10.884Z,12.48
2018-01-10T04:41:38.320Z,11.77
2018-01-10T04:44:05.785Z,11.57
2018-01-10T04:46:33.351Z,11.05
2018-01-10T04:49:00.832Z,11.23
2018-01-10T04:51:28.280Z,10.95
2018-01-10T04:53:55.717Z,11.63
2018-01-10T04:56:23.495Z,10.75
2018-01-10T04:58:50.940Z,11.45
2018-01-10T05:01:18.368Z,11.27
2018-01-10T05:03:50.788Z,10.50
2018-01-10T05:06:18.243Z,11.07
2018-01-10T05:08:45.680Z,11.25
2018-01-10T05:11:13.141Z,10.50
2018-01-10T05:13:40.576Z,10.68
2018-01-10T05:16:13.097Z,10.77
2018-01-10T05:18:40.540Z,10.85
2018-01-10T05:21:08.024Z,11.35
2018-01-10T05:23:35.460Z,11.25
2018-01-10T05:26:02.901Z,11.00
2018-01-10T05:28:30.531Z,11.07
2018-01-10T05:30:58.749Z,10.80
2018-01-10T05:33:27.148Z,9.88
2018-01-10T05:35:55.107Z,10.90
2018-01-10T05:38:22.544Z,10.63
2018-01-10T05:40:49.993Z,11.27
2018-01-10T05:43:17.483Z,10.00
2018-01-10T05:45:44.924Z,10.30
2018-01-10T05:48:12.356Z,10.32
2018-01-10T05:50:40.047Z,10.35
2018-01-10T05:53:07.486Z,10.15
2018-01-10T05:55:34.911Z,10.65
2018-01-10T05:58:04.113Z,10.25
2018-01-10T06:00:32.368Z,10.05
2018-01-10T06:03:00.509Z,9.18
2018-01-10T06:05:27.944Z,9.90
2018-01-10T06:07:55.485Z,9.10
2018-01-10T06:10:23.730Z,10.15
2018-01-10T06:12:51.148Z,9.23
2018-01-10T06:15:20.485Z,9.55
2018-01-10T06:17:49.469Z,8.90
2018-01-10T06:20:16.937Z,8.90
2018-01-10T06:22:44.364Z,9.40
2018-01-10T06:25:11.868Z,9.95
2018-01-10T06:27:39.301Z,9.75
2018-01-10T06:30:06.756Z,8.57
2018-01-10T06:32:34.187Z,9.60
2018-01-10T06:35:01.652Z,8.63
2018-01-10T06:37:29.081Z,9.30
2018-01-10T06:39:59.046Z,9.00
2018-01-10T06:42:29.478Z,8.85
2018-01-10T06:44:56.907Z,9.30
2018-01-10T06:47:24.487Z,10.68
2018-01-10T06:49:51.920Z,9.90
2018-01-10T06:52:19.352Z,9.02
2018-01-10T06:54:46.816Z,9.48
2018-01-10T06:57:15.511Z,9.18
2018-01-10T06:59:42.936Z,8.65
2018-01-10T07:02:11.143Z,10.02
2018-01-10T07:04:40.061Z,9.63
2018-01-10T07:07:07.557Z,8.35
2018-01-10T07:09:35.756Z,8.93
2018-01-10T07:12:03.184Z,8.80
2018-01-10T07:14:30.635Z,9.05
2018-01-10T07:16:58.060Z,9.98
2018-01-10T07:19:25.607Z,10.05
2018-01-10T07:21:53.040Z,8.88
2018-01-10T07:24:21.717Z,9.13
2018-01-10T07:26:49.908Z,7.90
2018-01-10T07:29:17.364Z,8.77
2018-01-10T07:31:44.800Z,18.37
2018-01-10T07:34:13.027Z,23.08
2018-01-10T07:36:40.465Z,24.12
2018-01-10T07:39:08.054Z,10.43
2018-01-10T07:41:35.509Z,24.90
2018-01-10T07:44:02.950Z,19.50
2018-01-10T07:46:36.053Z,11.77
2018-01-10T07:49:04.505Z,14.82
2018-01-10T07:51:31.940Z,13.32
2018-01-10T07:54:00.132Z,8.52
2018-01-10T07:56:27.639Z,9.07
2018-01-10T07:58:55.060Z,7.25
2018-01-10T08:01:23.180Z,6.57
2018-01-10T08:03:50.689Z,6.30
2018-01-10T08:06:18.139Z,6.00
2018-01-10T08:08:45.582Z,6.60
2018-01-10T08:11:17.653Z,5.95
2018-01-10T08:13:45.072Z,8.73
2018-01-10T08:16:12.808Z,7.85
2018-01-10T08:18:40.300Z,10.70
2018-01-10T08:21:07.743Z,18.33
2018-01-10T08:23:35.521Z,13.10
2018-01-10T08:26:11.992Z,8.13
2018-01-10T08:28:39.928Z,6.15
2018-01-10T08:31:07.357Z,6.90
2018-01-10T08:33:38.440Z,5.40
2018-01-10T08:36:05.872Z,5.43
2018-01-10T08:38:35.597Z,4.80
2018-01-10T08:41:03.026Z,5.47
2018-01-10T08:43:30.453Z,5.60
2018-01-10T08:45:59.940Z,5.18
2018-01-10T08:48:27.622Z,5.53
2018-01-10T08:50:55.820Z,5.30
2018-01-10T08:53:23.295Z,5.15
2018-01-10T08:55:50.741Z,6.22
2018-01-10T08:58:18.168Z,7.87
2018-01-10T09:00:45.731Z,5.50
2018-01-10T09:03:13.966Z,5.53
2018-01-10T09:05:41.385Z,4.95
2018-01-10T09:08:19.620Z,5.25
2018-01-10T09:10:47.041Z,5.32
2018-01-10T09:13:15.277Z,5.20
2018-01-10T09:15:42.844Z,5.30
2018-01-10T09:18:10.277Z,5.90
2018-01-10T09:20:37.720Z,5.32
2018-01-10T09:23:05.278Z,6.43
2018-01-10T09:25:32.696Z,4.97
2018-01-10T09:28:01.713Z,7.53
2018-01-10T09:30:29.136Z,7.43
2018-01-10T09:32:56.804Z,4.80
2018-01-10T09:35:25.976Z,5.55
2018-01-10T09:37:53.435Z,5.53
2018-01-10T09:40:20.876Z,5.05
2018-01-10T09:42:48.337Z,5.28
2018-01-10T09:45:15.775Z,5.28
2018-01-10T09:47:43.233Z,4.50
2018-01-10T09:50:10.849Z,4.93
2018-01-10T09:52:43.497Z,4.72
2018-01-10T09:55:10.930Z,4.90
2018-01-10T09:57:38.353Z,4.60
2018-01-10T10:00:06.580Z,4.90
2018-01-10T10:02:34.029Z,4.93
2018-01-10T10:05:04.481Z,4.70
2018-01-10T10:07:31.949Z,4.65
2018-01-10T10:09:59.372Z,5.00
2018-01-10T10:12:26.984Z,4.62
2018-01-10T10:14:55.194Z,5.10
2018-01-10T10:17:29.034Z,4.97
2018-01-10T10:19:56.454Z,4.85
2018-01-10T10:22:23.908Z,5.32
2018-01-10T10:24:56.227Z,18.50
2018-01-10T10:27:23.756Z,11.82
2018-01-10T10:29:51.192Z,6.28
2018-01-10T10:32:18.632Z,14.30
2018-01-10T10:34:46.892Z,6.40
2018-01-10T10:37:14.378Z,10.38
2018-01-10T10:39:41.825Z,13.35
2018-01-10T10:42:10.068Z,7.95
2018-01-10T10:44:38.456Z,12.80
2018-01-10T10:47:06.108Z,17.40
2018-01-10T10:49:33.548Z,11.18
2018-01-10T10:52:00.984Z,21.27
2018-01-10T10:54:28.442Z,7.07
2018-01-10T10:56:55.900Z,19.80
2018-01-10T10:59:23.332Z,12.95
2018-01-10T11:01:50.951Z,6.22
2018-01-10T11:04:18.532Z,12.60
2018-01-10T11:06:45.963Z,6.45
2018-01-10T11:09:14.377Z,6.78
2018-01-10T11:11:41.804Z,8.85
2018-01-10T11:14:09.299Z,11.35
2018-01-10T11:16:37.505Z,10.75
2018-01-10T11:19:05.017Z,18.35
2018-01-10T11:21:33.124Z,8.10
2018-01-10T11:24:00.556Z,7.10
2018-01-10T11:26:28.748Z,5.87
2018-01-10T11:28:56.213Z,5.10
2018-01-10T11:31:23.649Z,8.10
2018-01-10T11:33:51.860Z,6.90
2018-01-10T11:36:19.288Z,9.60
2018-01-10T11:38:48.565Z,11.10
2018-01-10T11:41:16.004Z,20.62
2018-01-10T11:43:46.005Z,13.18
2018-01-10T11:46:13.467Z,20.08
2018-01-10T11:48:40.940Z,9.65
2018-01-10T11:51:08.377Z,10.80
2018-01-10T11:53:35.828Z,6.28
2018-01-10T11:56:03.304Z,8.52
2018-01-10T11:58:30.736Z,6.00
2018-01-10T12:00:58.160Z,5.30
2018-01-10T12:03:26.444Z,5.25
2018-01-10T12:05:53.973Z,5.55
2018-01-10T12:08:21.425Z,4.75
2018-01-10T12:10:48.868Z,5.43
2018-01-10T12:13:16.752Z,5.00
2018-01-10T12:15:44.184Z,4.68
2018-01-10T12:18:22.091Z,4.22
2018-01-10T12:20:49.526Z,4.15
2018-01-10T12:23:17.411Z,3.83
2018-01-10T12:25:44.845Z,4.87
2018-01-10T12:28:12.360Z,4.30
2018-01-10T12:30:39.788Z,4.53
2018-01-10T12:33:07.224Z,4.50
2018-01-10T12:35:38.388Z,4.12
2018-01-10T12:38:05.880Z,4.03
2018-01-10T12:40:33.308Z,4.47
2018-01-10T12:43:00.773Z,4.22
2018-01-10T12:45:28.236Z,4.90
2018-01-10T12:47:55.672Z,5.18
2018-01-10T12:50:23.135Z,4.82
2018-01-10T12:52:50.616Z,4.43
2018-01-10T12:55:18.045Z,4.30
2018-01-10T12:57:50.463Z,4.85
2018-01-10T13:00:18.647Z,4.62
2018-01-10T13:02:46.871Z,4.53
2018-01-10T13:05:14.336Z,4.30
2018-01-10T13:07:41.768Z,4.15
2018-01-10T13:10:09.199Z,4.28
2018-01-10T13:12:36.744Z,4.30
2018-01-10T13:15:04.960Z,4.60
2018-01-10T13:17:32.468Z,4.40
2018-01-10T13:19:59.897Z,4.20
2018-01-10T13:22:27.334Z,4.28
2018-01-10T13:24:54.828Z,4.95
2018-01-10T13:27:22.264Z,4.55
2018-01-10T13:29:49.688Z,5.20
2018-01-10T13:32:17.188Z,4.78
2018-01-10T13:34:44.617Z,5.30
2018-01-10T13:37:12.120Z,5.12
2018-01-10T13:39:39.560Z,4.40
2018-01-10T13:42:06.992Z,4.72
2018-01-10T13:44:34.461Z,5.00
2018-01-10T13:47:02.097Z,5.07
2018-01-10T13:49:29.523Z,4.68
2018-01-10T13:51:57.717Z,4.90
2018-01-10T13:54:25.345Z,4.20
2018-01-10T13:56:52.777Z,4.32
2018-01-10T13:59:20.204Z,4.45
2018-01-10T14:01:47.676Z,12.40
2018-01-10T14:04:15.136Z,5.85
2018-01-10T14:06:42.568Z,4.50
2018-01-10T14:09:10.196Z,5.15
2018-01-10T14:11:37.624Z,5.80
2018-01-10T14:14:05.060Z,7.50
2018-01-10T14:16:32.514Z,6.72
2018-01-10T14:19:00.113Z,13.20
2018-01-10T14:21:27.557Z,64.55
2018-01-10T14:23:55.017Z,35.20
2018-01-10T14:26:22.456Z,25.85
2018-01-10T14:28:50.000Z,11.30
2018-01-10T14:31:17.488Z,27.02
2018-01-10T14:33:46.913Z,31.30
2018-01-10T14:36:14.366Z,41.47
2018-01-10T14:38:44.373Z,13.07
2018-01-10T14:41:11.841Z,24.52
2018-01-10T14:43:39.429Z,15.25
2018-01-10T14:46:07.801Z,22.85
2018-01-10T14:48:35.241Z,21.92
2018-01-10T14:51:02.700Z,24.98
2018-01-10T14:53:32.600Z,18.27
2018-01-10T14:56:00.584Z,18.62
2018-01-10T14:58:28.019Z,21.02
2018-01-10T15:00:55.452Z,10.25
2018-01-10T15:03:22.919Z,35.08
2018-01-10T15:05:50.371Z,17.98
2018-01-10T15:08:17.828Z,43.80
2018-01-10T15:10:45.265Z,11.95
2018-01-10T15:13:13.541Z,23.12
2018-01-10T15:15:41.764Z,18.52
2018-01-10T15:18:09.362Z,16.02
2018-01-10T15:20:37.560Z,11.10
2018-01-10T15:23:05.025Z,14.35
2018-01-10T15:25:33.451Z,10.60
2018-01-10T15:28:00.904Z,6.78
2018-01-10T15:30:28.335Z,5.85
2018-01-10T15:32:56.117Z,5.70
2018-01-10T15:35:23.553Z,5.18
2018-01-10T15:37:51.000Z,6.32
2018-01-10T15:40:18.468Z,5.30
2018-01-10T15:42:45.929Z,6.45
2018-01-10T15:45:13.341Z,5.90
2018-01-10T15:47:41.728Z,6.40
2018-01-10T15:50:11.920Z,6.03
2018-01-10T15:52:39.343Z,5.85
2018-01-10T15:55:07.035Z,6.03
2018-01-10T15:57:34.464Z,6.40
2018-01-10T16:00:01.900Z,7.57
2018-01-10T16:02:29.709Z,6.70
2018-01-10T16:04:57.141Z,6.65
2018-01-10T16:07:24.572Z,9.00
2018-01-10T16:09:52.971Z,7.80
2018-01-10T16:12:20.400Z,6.55
2018-01-10T16:14:48.600Z,10.23
2018-01-10T16:17:17.086Z,12.00
2018-01-10T16:19:44.516Z,17.25
2018-01-10T16:22:12.708Z,12.93
2018-01-10T16:24:40.309Z,12.52
2018-01-10T16:27:07.746Z,9.35
2018-01-10T16:29:35.244Z,13.60
2018-01-10T16:32:02.668Z,8.60
2018-01-10T16:34:30.933Z,8.20
2018-01-10T16:36:58.368Z,13.20
2018-01-10T16:39:25.831Z,9.13
2018-01-10T16:41:53.256Z,11.20
2018-01-10T16:44:20.709Z,6.75
2018-01-10T16:46:48.139Z,5.70
2018-01-10T16:49:16.104Z,5.57
2018-01-10T16:51:43.602Z,6.10
2018-01-10T16:54:10.965Z,6.87
2018-01-10T16:56:39.184Z,6.85
2018-01-10T16:59:15.468Z,6.03
2018-01-10T17:01:42.912Z,5.78
2018-01-10T17:04:11.319Z,7.80
2018-01-10T17:06:38.852Z,8.57
2018-01-10T17:09:07.293Z,6.55
2018-01-10T17:11:35.508Z,7.37
2018-01-10T17:14:02.949Z,6.57
2018-01-10T17:16:31.160Z,7.28
2018-01-10T17:18:58.593Z,6.10
2018-01-10T17:21:30.073Z,6.85
2018-01-10T17:23:58.453Z,9.10
2018-01-10T17:26:27.989Z,8.88
2018-01-10T17:28:57.156Z,10.15
2018-01-10T17:31:24.596Z,10.65
2018-01-10T17:33:52.180Z,8.07
2018-01-10T17:36:19.608Z,8.38
2018-01-10T17:38:47.048Z,7.68
2018-01-10T17:41:14.500Z,6.87
2018-01-10T17:43:41.936Z,8.13
2018-01-10T17:46:11.196Z,7.53
2018-01-10T17:48:38.628Z,6.68
2018-01-10T17:51:07.621Z,6.80
2018-01-10T17:53:35.072Z,6.90
2018-01-10T17:56:02.500Z,8.50
2018-01-10T17:58:31.676Z,7.20
2018-01-10T18:00:59.108Z,8.00
2018-01-10T18:03:26.673Z,7.45
2018-01-10T18:05:54.098Z,6.85
2018-01-10T18:08:21.515Z,6.60
2018-01-10T18:10:49.737Z,6.57
2018-01-10T18:13:17.217Z,6.30
2018-01-10T18:15:44.645Z,6.95
2018-01-10T18:18:12.072Z,9.32
2018-01-10T18:20:40.597Z,8.30
2018-01-10T18:23:08.042Z,7.90
2018-01-10T18:25:35.500Z,9.30
2018-01-10T18:28:02.925Z,7.35
2018-01-10T18:30:31.148Z,7.93
2018-01-10T18:32:58.577Z,7.68
2018-01-10T18:35:26.028Z,8.23
2018-01-10T18:37:53.512Z,10.02
2018-01-10T18:40:21.121Z,8.55
2018-01-10T18:42:49.315Z,9.80
2018-01-10T18:45:16.744Z,9.95
2018-01-10T18:47:44.205Z,10.07
2018-01-10T18:50:12.629Z,12.18
2018-01-10T18:52:40.831Z,10.65
2018-01-10T18:55:08.323Z,10.45
2018-01-10T18:57:35.757Z,9.18
2018-01-10T19:00:03.195Z,9.07
2018-01-10T19:02:30.696Z,10.60
2018-01-10T19:04:58.930Z,9.75
2018-01-10T19:07:26.372Z,10.85
2018-01-10T19:09:53.830Z,8.75
2018-01-10T19:12:21.287Z,8.15
2018-01-10T19:14:48.749Z,7.37
2018-01-10T19:17:16.175Z,7.87
2018-01-10T19:19:44.593Z,8.20
2018-01-10T19:22:12.040Z,8.50
2018-01-10T19:24:39.473Z,8.88
2018-01-10T19:27:07.008Z,8.70
2018-01-10T19:29:34.464Z,8.30
2018-01-10T19:32:01.906Z,8.25
2018-01-10T19:34:32.439Z,10.23
2018-01-10T19:36:59.972Z,9.95
2018-01-10T19:39:27.587Z,10.25
2018-01-10T19:41:55.802Z,14.27
2018-01-10T19:44:23.237Z,16.70
2018-01-10T19:47:01.816Z,21.73
2018-01-10T19:49:29.248Z,14.95
2018-01-10T19:51:56.687Z,11.65
2018-01-10T19:54:24.183Z,12.20
2018-01-10T19:56:51.617Z,11.40
2018-01-10T19:59:19.056Z,11.95
2018-01-10T20:01:50.325Z,13.02
2018-01-10T20:04:17.765Z,12.23
2018-01-10T20:06:48.234Z,10.00
2018-01-10T20:09:15.728Z,8.63
2018-01-10T20:11:43.159Z,8.65
2018-01-10T20:14:10.583Z,8.27
2018-01-10T20:16:38.435Z,7.75
2018-01-10T20:19:05.865Z,8.52
2018-01-10T20:21:33.301Z,8.27
2018-01-10T20:24:01.628Z,8.70
2018-01-10T20:26:29.065Z,8.48
2018-01-10T20:28:56.496Z,8.85
2018-01-10T20:31:24.916Z,8.50
2018-01-10T20:34:01.408Z,8.23
2018-01-10T20:36:28.853Z,9.00
2018-01-10T20:38:56.291Z,8.60
2018-01-10T20:41:23.752Z,8.50
2018-01-10T20:43:51.248Z,8.52
2018-01-10T20:46:18.681Z,8.50
2018-01-10T20:48:46.909Z,8.80
2018-01-10T20:51:15.239Z,8.70
2018-01-10T20:53:42.675Z,8.18
2018-01-10T20:56:10.107Z,9.25
2018-01-10T20:58:40.336Z,8.80
2018-01-10T21:01:08.541Z,8.50
2018-01-10T21:03:35.968Z,7.80
2018-01-10T21:06:03.881Z,9.77
2018-01-10T21:08:31.308Z,8.82
2018-01-10T21:10:58.744Z,9.30
2018-01-10T21:13:44.171Z,8.73
2018-01-10T21:16:11.608Z,8.55
2018-01-10T21:18:39.156Z,8.70
2018-01-10T21:21:06.585Z,8.27
2018-01-10T21:23:35.232Z,8.93
2018-01-10T21:26:15.444Z,8.85
2018-01-10T21:28:42.898Z,9.10
2018-01-10T21:31:10.378Z,8.73
2018-01-10T21:33:38.579Z,8.95
2018-01-10T21:36:19.664Z,9.60
2018-01-10T21:38:47.112Z,9.43
2018-01-10T21:41:14.559Z,9.38
2018-01-10T21:43:42.109Z,9.80
2018-01-10T21:46:09.532Z,9.70
2018-01-10T21:48:37.809Z,8.43
2018-01-10T21:51:08.524Z,9.23
2018-01-10T21:53:35.963Z,9.50
2018-01-10T21:56:03.452Z,9.30
2018-01-10T21:58:31.656Z,8.95
2018-01-10T22:00:59.085Z,8.65
2018-01-10T22:03:27.451Z,9.65
2018-01-10T22:05:54.886Z,8.90
2018-01-10T22:08:22.322Z,9.20
2018-01-10T22:10:49.785Z,9.13
2018-01-10T22:13:18.222Z,9.25
2018-01-10T22:15:46.420Z,9.40
2018-01-10T22:18:13.856Z,9.90
2018-01-10T22:20:42.701Z,10.38
2018-01-10T22:23:10.145Z,11.10
2018-01-10T22:25:37.584Z,10.60
2018-01-10T22:28:05.069Z,10.25
2018-01-10T22:30:32.528Z,10.52
2018-01-10T22:32:59.972Z,10.70
2018-01-10T22:35:27.440Z,10.85
2018-01-10T22:37:54.880Z,10.50
2018-01-10T22:40:22.516Z,10.75
2018-01-10T22:42:50.721Z,10.27
2018-01-10T22:45:18.156Z,10.48
2018-01-10T22:47:45.940Z,10.18
2018-01-10T22:50:13.373Z,10.18
2018-01-10T22:52:46.960Z,11.05
2018-01-10T22:55:15.263Z,11.35
2018-01-10T22:57:42.696Z,10.93
2018-01-10T23:00:10.891Z,10.90
2018-01-10T23:02:38.353Z,12.00
2018-01-10T23:05:05.796Z,10.73
2018-01-10T23:07:34.022Z,10.95
2018-01-10T23:10:01.452Z,12.40
2018-01-10T23:12:28.964Z,12.30
2018-01-10T23:14:56.400Z,11.40
2018-01-10T23:17:23.888Z,11.85
2018-01-10T23:19:52.103Z,12.80
2018-01-10T23:22:19.549Z,12.23
2018-01-10T23:24:47.164Z,12.52
2018-01-10T23:27:15.294Z,11.93
2018-01-10T23:29:43.661Z,12.70
2018-01-10T23:32:12.093Z,12.27
2018-01-10T23:34:39.570Z,12.88
2018-01-10T23:37:07.788Z,12.88
2018-01-10T23:39:35.232Z,12.70
2018-01-10T23:42:02.687Z,12.10
2018-01-10T23:44:30.127Z,13.95
2018-01-10T23:46:58.333Z,14.05
2018-01-10T23:49:27.404Z,13.25
2018-01-10T23:51:55.604Z,13.20
2018-01-10T23:54:23.384Z,14.35
2018-01-10T23:56:50.816Z,14.25
2018-01-10T23:59:18.252Z,14.57
